createdAt,value
2022-12-03T00:01:40.904Z,80.93
2022-12-03T00:04:08.406Z,81.15
2022-12-03T00:06:36.399Z,80.99
2022-12-03T00:09:04.417Z,81.07
2022-12-03T00:11:32.518Z,80.98
2022-12-03T00:13:59.944Z,81.93
2022-12-03T00:16:27.753Z,81.78
2022-12-03T00:18:56.743Z,81.89
2022-12-03T00:21:24.913Z,82.82
2022-12-03T00:23:52.656Z,82.10
2022-12-03T00:26:20.633Z,82.31
2022-12-03T00:28:48.145Z,81.68
2022-12-03T00:31:15.964Z,82.69
2022-12-03T00:33:43.607Z,82.29
2022-12-03T00:36:12.704Z,81.65
2022-12-03T00:38:40.213Z,81.30
2022-12-03T00:41:08.213Z,81.36
2022-12-03T00:43:35.445Z,81.40
2022-12-03T00:46:03.257Z,81.24
2022-12-03T00:48:30.712Z,82.01
2022-12-03T00:51:01.527Z,81.82
2022-12-03T00:53:30.303Z,81.46
2022-12-03T00:55:58.094Z,80.73
2022-12-03T00:58:25.694Z,80.50
2022-12-03T01:00:53.502Z,80.57
2022-12-03T01:03:20.903Z,81.95
2022-12-03T01:05:48.715Z,81.83
2022-12-03T01:08:16.161Z,81.42
2022-12-03T01:10:45.708Z,82.01
2022-12-03T01:13:13.304Z,82.28
2022-12-03T01:15:41.192Z,81.50
2022-12-03T01:18:08.794Z,82.48
2022-12-03T01:20:36.513Z,81.86
2022-12-03T01:23:03.724Z,82.34
2022-12-03T01:25:31.431Z,82.96
2022-12-03T01:28:00.134Z,82.39
2022-12-03T01:30:28.166Z,82.49
2022-12-03T01:32:55.480Z,82.48
2022-12-03T01:35:23.335Z,83.11
2022-12-03T01:37:50.569Z,82.38
2022-12-03T01:40:20.736Z,82.50
2022-12-03T01:42:48.260Z,82.30
2022-12-03T01:45:23.209Z,82.37
2022-12-03T01:47:51.136Z,82.38
2022-12-03T01:50:23.098Z,83.29
2022-12-03T01:52:51.057Z,82.76
2022-12-03T01:55:21.235Z,82.69
2022-12-03T01:57:51.848Z,82.52
2022-12-03T02:02:54.161Z,82.29
2022-12-03T02:05:24.207Z,82.65
2022-12-03T02:07:51.699Z,82.27
2022-12-03T02:10:22.775Z,82.51
2022-12-03T02:12:55.073Z,82.47
2022-12-03T02:15:23.070Z,82.74
2022-12-03T02:17:52.101Z,82.85
2022-12-03T02:20:20.188Z,83.34
2022-12-03T02:22:55.237Z,82.36
2022-12-03T02:25:27.343Z,82.75
2022-12-03T02:27:55.361Z,82.65
2022-12-03T02:30:26.042Z,83.23
2022-12-03T02:32:54.688Z,83.79
2022-12-03T02:35:24.713Z,83.12
2022-12-03T02:37:54.763Z,82.27
2022-12-03T02:40:27.602Z,82.24
2022-12-03T02:42:58.239Z,82.72
2022-12-03T02:45:28.757Z,83.06
2022-12-03T02:47:59.306Z,82.49
2022-12-03T02:50:30.672Z,83.21
2022-12-03T02:53:01.076Z,82.65
2022-12-03T02:55:36.751Z,82.68
2022-12-03T02:58:05.082Z,83.77
2022-12-03T03:00:33.987Z,83.38
2022-12-03T03:03:02.207Z,83.21
2022-12-03T03:05:31.076Z,84.14
2022-12-03T03:07:59.600Z,84.54
2022-12-03T03:10:29.137Z,84.85
2022-12-03T03:12:58.649Z,84.13
2022-12-03T03:15:26.243Z,85.04
2022-12-03T03:17:53.712Z,85.55
2022-12-03T03:20:21.594Z,84.33
2022-12-03T03:22:48.870Z,84.19
2022-12-03T03:25:19.726Z,84.72
2022-12-03T03:27:47.436Z,85.34
2022-12-03T03:30:17.209Z,85.45
2022-12-03T03:32:44.444Z,84.91
2022-12-03T03:35:12.477Z,85.14
2022-12-03T03:37:39.838Z,85.15
2022-12-03T03:40:08.714Z,84.74
2022-12-03T03:42:37.022Z,84.78
2022-12-03T03:45:06.413Z,84.66
2022-12-03T03:47:35.233Z,85.14
2022-12-03T03:50:03.336Z,84.60
2022-12-03T03:52:30.708Z,84.85
2022-12-03T03:54:59.143Z,85.43
2022-12-03T03:57:26.413Z,85.38
2022-12-03T03:59:54.234Z,84.50
2022-12-03T04:02:24.563Z,84.61
2022-12-03T04:04:54.360Z,84.65
2022-12-03T04:07:21.843Z,84.95
2022-12-03T04:09:49.423Z,85.39
2022-12-03T04:12:19.184Z,84.59
2022-12-03T04:14:47.169Z,84.41
2022-12-03T04:17:14.403Z,83.44
2022-12-03T04:19:42.417Z,84.21
2022-12-03T04:22:11.101Z,83.94
2022-12-03T04:24:38.902Z,83.85
2022-12-03T04:27:06.287Z,84.61
2022-12-03T04:29:33.950Z,84.17
2022-12-03T04:32:01.225Z,85.10
2022-12-03T04:34:28.976Z,84.75
2022-12-03T04:36:56.578Z,84.48
2022-12-03T04:39:25.700Z,84.57
2022-12-03T04:41:53.355Z,85.28
2022-12-03T04:44:21.413Z,84.79
2022-12-03T04:46:48.531Z,83.83
2022-12-03T04:49:16.662Z,83.82
2022-12-03T04:51:44.247Z,84.31
2022-12-03T04:54:11.932Z,84.22
2022-12-03T04:56:44.016Z,84.27
2022-12-03T04:59:16.011Z,83.84
2022-12-03T05:01:45.118Z,84.36
2022-12-03T05:04:14.010Z,84.44
2022-12-03T05:06:42.445Z,83.98
2022-12-03T05:09:11.117Z,84.16
2022-12-03T05:11:38.694Z,84.82
2022-12-03T05:14:09.918Z,84.19
2022-12-03T05:16:37.415Z,83.62
2022-12-03T05:19:07.797Z,84.04
2022-12-03T05:21:35.657Z,83.94
2022-12-03T05:24:03.711Z,84.15
2022-12-03T05:26:31.229Z,83.15
2022-12-03T05:28:59.189Z,82.95
2022-12-03T05:31:27.999Z,83.59
2022-12-03T05:33:56.322Z,83.03
2022-12-03T05:36:23.554Z,83.59
2022-12-03T05:38:51.312Z,83.29
2022-12-03T05:41:18.618Z,83.73
2022-12-03T05:43:46.413Z,84.18
2022-12-03T05:46:13.692Z,83.16
2022-12-03T05:48:44.017Z,82.07
2022-12-03T05:51:11.324Z,83.11
2022-12-03T05:53:39.107Z,84.24
2022-12-03T05:56:07.132Z,84.11
2022-12-03T05:58:35.274Z,83.54
2022-12-03T06:01:02.598Z,83.90
2022-12-03T06:03:31.036Z,84.14
2022-12-03T06:06:00.006Z,83.32
2022-12-03T06:08:28.162Z,83.61
2022-12-03T06:10:55.481Z,83.54
2022-12-03T06:13:23.444Z,83.56
2022-12-03T06:15:51.007Z,83.31
2022-12-03T06:18:19.062Z,83.60
2022-12-03T06:20:46.370Z,83.44
2022-12-03T06:23:15.571Z,83.88
2022-12-03T06:25:42.859Z,84.68
2022-12-03T06:28:10.684Z,83.63
2022-12-03T06:30:37.973Z,83.33
2022-12-03T06:33:05.743Z,83.89
2022-12-03T06:35:33.066Z,83.72
2022-12-03T06:38:01.211Z,83.51
2022-12-03T06:40:30.162Z,83.64
2022-12-03T06:42:57.932Z,83.91
2022-12-03T06:45:25.505Z,84.00
2022-12-03T06:47:53.309Z,83.76
2022-12-03T06:50:20.954Z,83.70
2022-12-03T06:52:48.869Z,83.15
2022-12-03T06:55:16.390Z,83.46
2022-12-03T06:57:45.656Z,83.03
2022-12-03T07:00:14.031Z,83.55
2022-12-03T07:02:42.005Z,83.61
2022-12-03T07:05:09.799Z,83.53
2022-12-03T07:07:37.896Z,83.35
2022-12-03T07:10:06.631Z,83.61
2022-12-03T07:12:34.459Z,83.61
2022-12-03T07:15:03.213Z,83.06
2022-12-03T07:17:30.939Z,83.46
2022-12-03T07:19:58.321Z,84.27
2022-12-03T07:22:25.978Z,83.51
2022-12-03T07:24:53.645Z,83.46
2022-12-03T07:27:21.634Z,83.38
2022-12-03T07:29:49.012Z,83.79
2022-12-03T07:32:18.259Z,83.70
2022-12-03T07:34:45.432Z,83.74
2022-12-03T07:37:13.140Z,83.60
2022-12-03T07:39:40.478Z,83.80
2022-12-03T07:42:08.319Z,83.54
2022-12-03T07:44:35.685Z,83.03
2022-12-03T07:47:03.497Z,83.35
2022-12-03T07:49:32.315Z,83.57
2022-12-03T07:52:00.385Z,82.76
2022-12-03T07:54:27.653Z,82.97
2022-12-03T07:57:00.948Z,83.14
2022-12-03T07:59:28.985Z,83.85
2022-12-03T08:01:57.142Z,83.66
2022-12-03T08:04:24.639Z,83.47
2022-12-03T08:06:53.900Z,83.78
2022-12-03T08:09:21.264Z,83.20
2022-12-03T08:11:49.743Z,83.41
2022-12-03T08:14:18.233Z,83.65
2022-12-03T08:16:47.689Z,83.12
2022-12-03T08:19:16.499Z,82.96
2022-12-03T08:21:45.146Z,82.25
2022-12-03T08:24:16.560Z,81.60
2022-12-03T08:26:46.328Z,81.49
2022-12-03T08:29:16.324Z,80.87
2022-12-03T08:31:48.166Z,82.21
2022-12-03T08:34:20.567Z,82.55
2022-12-03T08:36:51.279Z,82.90
2022-12-03T08:39:41.574Z,82.82
2022-12-03T08:42:14.114Z,83.62
2022-12-03T08:44:41.502Z,83.47
2022-12-03T08:47:16.762Z,83.98
2022-12-03T08:49:51.386Z,83.52
2022-12-03T08:52:21.299Z,83.70
2022-12-03T08:54:53.116Z,83.55
2022-12-03T08:57:28.031Z,84.12
2022-12-03T08:59:58.659Z,84.45
2022-12-03T09:02:31.359Z,84.16
2022-12-03T09:04:59.664Z,84.40
2022-12-03T09:07:27.873Z,83.56
2022-12-03T09:09:56.704Z,83.29
2022-12-03T09:12:24.370Z,84.03
2022-12-03T09:14:52.000Z,83.53
2022-12-03T09:17:20.093Z,82.45
2022-12-03T09:19:47.508Z,81.92
2022-12-03T09:22:15.291Z,82.07
2022-12-03T09:24:42.554Z,82.13
2022-12-03T09:27:11.964Z,82.74
2022-12-03T09:29:39.267Z,82.56
2022-12-03T09:32:07.224Z,82.25
2022-12-03T09:34:34.611Z,82.11
2022-12-03T09:37:02.732Z,82.05
2022-12-03T09:39:29.982Z,81.41
2022-12-03T09:41:57.986Z,82.36
2022-12-03T09:44:29.558Z,82.57
2022-12-03T09:46:57.428Z,83.39
2022-12-03T09:49:24.959Z,83.26
2022-12-03T09:51:56.614Z,83.02
2022-12-03T09:54:26.836Z,82.42
2022-12-03T09:56:56.860Z,82.67
2022-12-03T09:59:30.145Z,82.91
2022-12-03T10:01:58.505Z,82.28
2022-12-03T10:04:27.318Z,81.95
2022-12-03T10:06:57.742Z,81.86
2022-12-03T10:09:27.824Z,81.54
2022-12-03T10:11:56.922Z,80.96
2022-12-03T10:14:24.679Z,82.00
2022-12-03T10:16:54.852Z,81.53
2022-12-03T10:19:24.641Z,81.25
2022-12-03T10:21:52.420Z,81.42
2022-12-03T10:24:25.793Z,81.13
2022-12-03T10:26:55.784Z,81.32
2022-12-03T10:29:29.934Z,81.63
2022-12-03T10:32:05.628Z,82.65
2022-12-03T10:34:34.849Z,82.49
2022-12-03T10:37:14.428Z,82.39
2022-12-03T10:39:57.197Z,81.98
2022-12-03T10:42:26.696Z,82.47
2022-12-03T10:45:14.362Z,81.90
2022-12-03T10:47:45.036Z,81.96
2022-12-03T10:50:17.636Z,82.08
2022-12-03T10:52:46.550Z,81.44
2022-12-03T10:55:14.946Z,81.73
2022-12-03T10:57:45.860Z,81.66
2022-12-03T11:00:16.471Z,82.09
2022-12-03T11:02:53.082Z,82.35
2022-12-03T11:05:25.571Z,82.65
2022-12-03T11:07:53.797Z,82.61
2022-12-03T11:10:21.735Z,82.13
2022-12-03T11:13:22.605Z,82.97
2022-12-03T11:15:50.093Z,83.12
2022-12-03T11:18:51.606Z,83.47
2022-12-03T11:21:20.393Z,82.35
2022-12-03T11:24:17.745Z,82.09
2022-12-03T11:27:27.674Z,82.04
2022-12-03T11:29:59.976Z,82.24
2022-12-03T11:33:05.403Z,83.02
2022-12-03T11:36:16.695Z,82.58
2022-12-03T11:38:56.632Z,83.29
2022-12-03T11:41:31.184Z,82.70
2022-12-03T11:44:29.874Z,81.95
2022-12-03T11:47:08.560Z,81.84
2022-12-03T11:49:39.393Z,81.88
2022-12-03T11:52:27.305Z,82.21
2022-12-03T11:54:59.671Z,82.45
2022-12-03T11:57:33.896Z,82.95
2022-12-03T12:00:05.870Z,82.87
2022-12-03T12:02:34.137Z,82.81
2022-12-03T12:05:16.629Z,83.04
2022-12-03T12:07:44.475Z,83.23
2022-12-03T12:10:13.894Z,82.97
2022-12-03T12:12:47.224Z,82.87
2022-12-03T12:15:42.419Z,82.05
2022-12-03T12:18:39.611Z,82.17
2022-12-03T12:21:44.508Z,82.47
2022-12-03T12:24:36.480Z,82.13
2022-12-03T12:27:07.429Z,81.96
2022-12-03T12:29:35.984Z,82.71
2022-12-03T12:32:13.091Z,82.56
2022-12-03T12:34:42.237Z,82.75
2022-12-03T12:37:12.230Z,82.30
2022-12-03T12:39:40.891Z,83.20
2022-12-03T12:42:28.992Z,82.08
2022-12-03T12:45:09.349Z,82.27
2022-12-03T12:47:36.732Z,82.54
2022-12-03T12:50:10.872Z,82.10
2022-12-03T12:52:47.183Z,81.64
2022-12-03T12:55:15.158Z,82.53
2022-12-03T12:57:44.395Z,82.35
2022-12-03T13:00:15.668Z,82.22
2022-12-03T13:02:48.917Z,82.56
2022-12-03T13:05:17.832Z,81.68
2022-12-03T13:07:45.760Z,82.05
2022-12-03T13:10:35.939Z,82.12
2022-12-03T13:13:15.672Z,82.51
2022-12-03T13:15:50.893Z,82.63
2022-12-03T13:18:29.369Z,83.13
2022-12-03T13:20:57.438Z,83.46
2022-12-03T13:23:32.740Z,82.68
2022-12-03T13:26:17.342Z,82.43
2022-12-03T13:28:52.551Z,82.56
2022-12-03T13:31:26.835Z,82.10
2022-12-03T13:33:55.475Z,82.53
2022-12-03T13:36:35.856Z,82.92
2022-12-03T13:39:13.020Z,82.80
2022-12-03T13:41:42.527Z,82.92
2022-12-03T13:44:29.934Z,83.73
2022-12-03T13:47:00.953Z,83.03
2022-12-03T13:49:30.078Z,82.46
2022-12-03T13:51:57.832Z,82.61
2022-12-03T13:54:30.706Z,82.19
2022-12-03T13:56:58.512Z,82.01
2022-12-03T13:59:27.546Z,81.21
2022-12-03T14:01:55.723Z,81.68
2022-12-03T14:04:23.225Z,82.58
2022-12-03T14:06:51.375Z,81.98
2022-12-03T14:09:19.327Z,81.93
2022-12-03T14:11:47.316Z,81.79
2022-12-03T14:14:15.169Z,82.15
2022-12-03T14:16:44.786Z,82.12
2022-12-03T14:19:12.459Z,81.92
2022-12-03T14:21:40.843Z,82.07
2022-12-03T14:24:08.722Z,82.24
2022-12-03T14:26:36.985Z,82.46
2022-12-03T14:29:08.611Z,81.97
2022-12-03T14:31:37.214Z,81.86
2022-12-03T14:34:06.365Z,81.41
2022-12-03T14:36:34.279Z,81.72
2022-12-03T14:39:01.850Z,81.95
2022-12-03T14:41:30.256Z,82.28
2022-12-03T14:43:57.906Z,82.44
2022-12-03T14:46:26.509Z,82.67
2022-12-03T14:48:54.057Z,82.17
2022-12-03T14:51:23.738Z,81.41
2022-12-03T14:53:51.556Z,81.27
2022-12-03T14:56:19.840Z,80.99
2022-12-03T14:58:47.690Z,81.22
2022-12-03T15:01:16.148Z,81.37
2022-12-03T15:03:43.773Z,81.00
2022-12-03T15:06:12.101Z,81.22
2022-12-03T15:08:41.052Z,81.20
2022-12-03T15:11:09.411Z,81.09
2022-12-03T15:13:36.943Z,81.63
2022-12-03T15:16:05.890Z,81.53
2022-12-03T15:18:33.503Z,81.76
2022-12-03T15:21:02.009Z,82.22
2022-12-03T15:23:29.359Z,82.55
2022-12-03T15:25:59.317Z,82.03
2022-12-03T15:28:26.878Z,82.71
2022-12-03T15:30:55.131Z,82.57
2022-12-03T15:33:22.479Z,83.11
2022-12-03T15:35:50.243Z,83.27
2022-12-03T15:38:17.848Z,82.88
2022-12-03T15:40:45.747Z,82.08
2022-12-03T15:43:14.984Z,82.44
2022-12-03T15:45:43.093Z,81.29
2022-12-03T15:48:10.491Z,81.55
2022-12-03T15:50:41.897Z,82.22
2022-12-03T15:53:09.517Z,82.44
2022-12-03T15:55:37.419Z,82.07
2022-12-03T15:58:04.791Z,82.10
2022-12-03T16:00:33.973Z,82.01
2022-12-03T16:03:01.567Z,82.62
2022-12-03T16:05:29.468Z,82.60
2022-12-03T16:07:56.916Z,82.40
2022-12-03T16:10:24.873Z,82.81
2022-12-03T16:12:52.299Z,82.83
2022-12-03T16:15:29.728Z,82.28
2022-12-03T16:17:58.782Z,81.78
2022-12-03T16:20:26.805Z,81.81
2022-12-03T16:22:54.216Z,81.53
2022-12-03T16:25:21.895Z,81.91
2022-12-03T16:27:49.361Z,81.36
2022-12-03T16:30:17.817Z,80.79
2022-12-03T16:32:45.421Z,81.25
2022-12-03T16:35:15.188Z,80.94
2022-12-03T16:37:42.865Z,80.73
2022-12-03T16:40:11.926Z,80.30
2022-12-03T16:42:39.445Z,80.69
2022-12-03T16:45:08.954Z,81.28
2022-12-03T16:47:36.944Z,81.71
2022-12-03T16:50:07.474Z,82.44
2022-12-03T16:52:36.583Z,82.39
2022-12-03T16:55:05.353Z,81.69
2022-12-03T16:57:34.067Z,81.19
2022-12-03T17:00:02.232Z,81.56
2022-12-03T17:02:29.987Z,81.58
2022-12-03T17:04:58.098Z,81.82
2022-12-03T17:07:25.731Z,82.03
2022-12-03T17:09:55.968Z,82.11
2022-12-03T17:12:25.453Z,81.99
2022-12-03T17:14:53.993Z,83.01
2022-12-03T17:17:23.869Z,82.81
2022-12-03T17:19:55.067Z,82.69
2022-12-03T17:22:22.598Z,82.93
2022-12-03T17:24:53.040Z,82.43
2022-12-03T17:27:22.317Z,82.36
2022-12-03T17:29:50.580Z,81.94
2022-12-03T17:32:18.162Z,81.32
2022-12-03T17:34:45.972Z,81.87
2022-12-03T17:37:13.427Z,82.14
2022-12-03T17:39:41.124Z,82.25
2022-12-03T17:42:08.618Z,82.27
2022-12-03T17:44:38.155Z,82.49
2022-12-03T17:47:06.075Z,82.69
2022-12-03T17:49:35.230Z,83.02
2022-12-03T17:52:02.912Z,82.90
2022-12-03T17:54:55.299Z,82.46
2022-12-03T17:57:18.784Z,82.82
2022-12-03T17:59:48.297Z,82.36
2022-12-03T18:02:15.926Z,82.92
2022-12-03T18:04:44.150Z,83.01
2022-12-03T18:07:12.300Z,82.75
2022-12-03T18:09:40.081Z,83.12
2022-12-03T18:12:08.208Z,83.30
2022-12-03T18:14:36.543Z,83.01
2022-12-03T18:17:05.696Z,83.19
2022-12-03T18:19:33.373Z,83.24
2022-12-03T18:22:00.789Z,82.83
2022-12-03T18:24:28.711Z,82.76
2022-12-03T18:26:56.188Z,82.83
2022-12-03T18:29:24.473Z,82.15
2022-12-03T18:31:52.025Z,82.25
2022-12-03T18:34:21.545Z,81.95
2022-12-03T18:36:54.136Z,82.33
2022-12-03T18:39:26.379Z,82.70
2022-12-03T18:41:54.159Z,82.33
2022-12-03T18:44:22.014Z,82.07
2022-12-03T18:46:54.137Z,82.04
2022-12-03T18:49:23.442Z,82.57
2022-12-03T18:51:56.026Z,82.33
2022-12-03T18:54:27.098Z,82.82
2022-12-03T18:56:54.599Z,83.27
2022-12-03T18:59:22.701Z,83.09
2022-12-03T19:01:50.064Z,82.97
2022-12-03T19:04:18.302Z,83.17
2022-12-03T19:06:47.689Z,83.28
2022-12-03T19:09:16.108Z,83.34
2022-12-03T19:11:44.912Z,83.48
2022-12-03T19:14:13.684Z,83.20
2022-12-03T19:16:42.553Z,83.24
2022-12-03T19:19:11.033Z,83.25
2022-12-03T19:21:38.694Z,83.05
2022-12-03T19:24:25.457Z,82.91
2022-12-03T19:26:53.672Z,82.57
2022-12-03T19:29:22.775Z,83.19
2022-12-03T19:31:50.788Z,82.66
2022-12-03T19:34:19.594Z,82.82
2022-12-03T19:36:47.583Z,82.88
2022-12-03T19:39:17.425Z,83.10
2022-12-03T19:41:45.106Z,83.62
2022-12-03T19:44:14.318Z,83.28
2022-12-03T19:46:42.392Z,83.21
2022-12-03T19:49:11.496Z,83.17
2022-12-03T19:51:39.469Z,83.41
2022-12-03T19:54:11.350Z,84.07
2022-12-03T19:56:40.308Z,83.24
2022-12-03T19:59:08.237Z,83.44
2022-12-03T20:01:36.150Z,83.29
2022-12-03T20:04:04.666Z,83.63
2022-12-03T20:06:35.123Z,84.36
2022-12-03T20:09:06.807Z,84.37
2022-12-03T20:11:35.462Z,84.19
2022-12-03T20:14:06.592Z,83.94
2022-12-03T20:16:35.833Z,83.80
2022-12-03T20:19:06.348Z,83.49
2022-12-03T20:21:36.622Z,83.83
2022-12-03T20:24:05.841Z,84.32
2022-12-03T20:26:34.185Z,84.27
2022-12-03T20:29:06.007Z,83.75
2022-12-03T20:31:35.377Z,83.52
2022-12-03T20:34:04.568Z,83.22
2022-12-03T20:36:32.989Z,84.05
2022-12-03T20:39:02.710Z,83.87
2022-12-03T20:41:30.544Z,84.27
2022-12-03T20:43:58.326Z,84.48
2022-12-03T20:46:27.811Z,84.74
2022-12-03T20:48:58.250Z,84.14
2022-12-03T20:51:28.182Z,84.03
2022-12-03T20:53:56.385Z,83.88
2022-12-03T20:56:26.392Z,84.11
2022-12-03T20:58:54.469Z,83.85
2022-12-03T21:01:23.833Z,83.73
2022-12-03T21:03:53.427Z,83.91
2022-12-03T21:06:24.144Z,84.23
2022-12-03T21:08:53.295Z,84.18
2022-12-03T21:11:23.048Z,84.34
2022-12-03T21:13:51.207Z,84.33
2022-12-03T21:16:39.294Z,83.92
2022-12-03T21:19:09.727Z,84.22
2022-12-03T21:21:38.478Z,84.48
2022-12-03T21:24:07.223Z,84.57
2022-12-03T21:26:34.764Z,84.36
2022-12-03T21:29:02.600Z,84.20
2022-12-03T21:31:30.113Z,84.27
2022-12-03T21:33:58.293Z,84.55
2022-12-03T21:36:26.031Z,84.36
2022-12-03T21:38:55.377Z,84.59
2022-12-03T21:41:22.767Z,84.34
2022-12-03T21:43:50.739Z,84.12
2022-12-03T21:47:09.509Z,83.71
2022-12-03T21:49:06.158Z,84.03
2022-12-03T21:51:33.782Z,84.41
2022-12-03T21:54:04.230Z,84.84
2022-12-03T21:56:31.785Z,84.42
2022-12-03T21:58:59.726Z,84.58
2022-12-03T22:01:27.477Z,84.32
2022-12-03T22:03:55.827Z,84.32
2022-12-03T22:06:23.489Z,84.82
2022-12-03T22:08:51.241Z,84.33
2022-12-03T22:11:22.144Z,84.48
2022-12-03T22:13:51.368Z,84.56
2022-12-03T22:16:21.246Z,84.64
2022-12-03T22:18:49.905Z,84.42
2022-12-03T22:21:19.022Z,84.86
2022-12-03T22:23:47.151Z,84.88
2022-12-03T22:26:16.913Z,84.63
2022-12-03T22:28:48.627Z,84.52
2022-12-03T22:31:17.629Z,84.77
2022-12-03T22:33:45.589Z,84.90
2022-12-03T22:36:20.007Z,84.65
2022-12-03T22:38:48.792Z,84.23
2022-12-03T22:41:16.320Z,84.59
2022-12-03T22:43:47.015Z,84.80
2022-12-03T22:46:14.953Z,84.17
2022-12-03T22:48:44.645Z,84.52
2022-12-03T22:51:13.238Z,84.55
2022-12-03T22:53:41.124Z,84.67
2022-12-03T22:56:08.880Z,84.58
2022-12-03T22:58:38.281Z,84.18
2022-12-03T23:01:07.943Z,83.37
2022-12-03T23:03:36.780Z,84.19
2022-12-03T23:06:09.864Z,84.70
2022-12-03T23:08:37.746Z,84.35
2022-12-03T23:11:05.385Z,84.61
2022-12-03T23:13:33.293Z,84.19
2022-12-03T23:16:00.563Z,84.16
2022-12-03T23:18:30.137Z,84.37
2022-12-03T23:20:57.787Z,84.41
2022-12-03T23:23:27.735Z,84.34
2022-12-03T23:25:59.100Z,84.36
2022-12-03T23:28:28.385Z,84.46
2022-12-03T23:30:56.030Z,84.18
2022-12-03T23:33:24.566Z,84.44
2022-12-03T23:35:54.018Z,84.23
2022-12-03T23:38:21.882Z,84.51
2022-12-03T23:40:49.795Z,84.62
2022-12-03T23:43:17.737Z,84.51
2022-12-03T23:45:45.228Z,84.27
2022-12-03T23:48:13.174Z,85.01
2022-12-03T23:50:40.809Z,84.45
2022-12-03T23:53:10.610Z,84.77
2022-12-03T23:55:39.880Z,84.98
2022-12-03T23:58:07.963Z,84.37
